This is the latest recevied weather packets stored in our database for station/object IN3MWE-10. If no packets are shown the sender has not sent any weather packets the latest 10 day(s).
| Time | Temp. | Humidity | Pressure | Rain* | Wind** | Luminosity | Snow |
|---|---|---|---|---|---|---|---|
| 1787592021 | 27.78° C | 54% | 977.7 hPa | - | - | - | - |
| 1787591121 | 28.33° C | 48% | 977.6 hPa | - | - | - | - |
| 1787590220 | 28.33° C | 47% | 977.6 hPa | - | - | - | - |
| 1787589320 | 28.89° C | 43% | 977.5 hPa | - | - | - | - |
| 1787588420 | 29.44° C | 41% | 977.5 hPa | - | - | - | - |
| 1787587520 | 33.33° C | 34% | 977.4 hPa | - | - | - | - |
| 1787586620 | 33.89° C | 32% | 977.5 hPa | - | - | - | - |
| 1787585720 | 35° C | 30% | 977.7 hPa | - | - | - | - |
| 1787584820 | 34.44° C | 29% | 978 hPa | - | - | - | - |
| 1787583919 | 32.78° C | 31% | 978.2 hPa | - | - | - | - |
| 1787583019 | 36.11° C | 28% | 978.2 hPa | - | - | - | - |
| 1787582119 | 34.44° C | 30% | 978.5 hPa | - | - | - | - |
| 1787581219 | 33.89° C | 32% | 978.6 hPa | - | - | - | - |
| 1787580319 | 34.44° C | 30% | 978.6 hPa | - | - | - | - |
| 1787579419 | 37.78° C | 26% | 978.7 hPa | - | - | - | - |
| 1787578519 | 34.44° C | 31% | 979 hPa | - | - | - | - |
| 1787577619 | 36.67° C | 28% | 979.2 hPa | - | - | - | - |
| 1787576718 | 36.67° C | 27% | 979.3 hPa | - | - | - | - |
| 1787575818 | 37.78° C | 25% | 979.3 hPa | - | - | - | - |
| 1787574918 | 38.89° C | 24% | 979.6 hPa | - | - | - | - |
| 1787574018 | 39.44° C | 22% | 979.8 hPa | - | - | - | - |
| 1787573118 | 38.89° C | 22% | 980.1 hPa | - | - | - | - |
| 1787572218 | 38.89° C | 25% | 980.2 hPa | - | - | - | - |
| 1787571317 | 36.67° C | 26% | 980.4 hPa | - | - | - | - |
| 1787570417 | 36.11° C | 29% | 980.6 hPa | - | - | - | - |
* Rain since midnight (hover to see other rain measurements)
** Current wind speed in m/s (hover to see current wind gust speed)